createdAt,value
2023-04-30T00:01:47.931Z,75798.91
2023-04-30T00:04:17.194Z,75800.97
2023-04-30T00:06:45.037Z,75805.03
2023-04-30T00:09:12.848Z,75811.16
2023-04-30T00:11:40.625Z,75817.25
2023-04-30T00:14:08.422Z,75817.25
2023-04-30T00:16:36.297Z,75811.16
2023-04-30T00:19:04.141Z,75803.00
2023-04-30T00:21:33.597Z,75807.06
2023-04-30T00:24:01.609Z,75809.13
2023-04-30T00:26:29.487Z,75809.13
2023-04-30T00:28:57.245Z,75813.19
2023-04-30T00:31:25.081Z,75813.19
2023-04-30T00:33:52.885Z,75821.34
2023-04-30T00:36:20.642Z,75821.34
2023-04-30T00:38:49.760Z,75831.53
2023-04-30T00:41:17.625Z,75845.81
2023-04-30T00:43:46.896Z,75853.97
2023-04-30T00:46:14.741Z,75851.91
2023-04-30T00:48:42.530Z,75856.00
2023-04-30T00:51:10.290Z,75868.22
2023-04-30T00:53:39.338Z,75880.47
2023-04-30T00:56:10.435Z,75890.66
2023-04-30T00:58:38.195Z,75898.81
2023-04-30T01:01:07.212Z,75906.97
2023-04-30T01:03:36.105Z,75911.03
2023-04-30T01:06:04.574Z,75915.13
2023-04-30T01:08:33.359Z,75913.09
2023-04-30T01:11:21.588Z,75919.19
2023-04-30T01:13:56.702Z,75929.41
2023-04-30T01:16:28.186Z,75927.34
2023-04-30T01:19:00.174Z,75931.44
2023-04-30T01:21:30.785Z,75939.59
2023-04-30T01:24:30.516Z,75941.63
2023-04-30T01:27:16.989Z,75935.50
2023-04-30T01:29:46.118Z,75931.44
2023-04-30T01:32:13.898Z,75949.78
2023-04-30T01:34:41.759Z,75959.97
2023-04-30T01:37:22.823Z,75968.13
2023-04-30T01:40:03.949Z,75974.25
2023-04-30T01:42:37.963Z,75972.22
2023-04-30T01:45:29.764Z,75982.41
2023-04-30T01:48:04.246Z,75980.34
2023-04-30T01:50:39.583Z,75988.50
2023-04-30T01:53:10.615Z,75992.59
2023-04-30T01:55:43.901Z,75996.66
2023-04-30T01:58:14.480Z,76002.78
2023-04-30T02:00:43.783Z,76008.91
2023-04-30T02:03:11.554Z,76004.81
2023-04-30T02:05:39.421Z,76008.91
2023-04-30T02:08:08.018Z,76015.03
2023-04-30T02:10:35.831Z,76021.13
2023-04-30T02:13:03.626Z,76017.06
2023-04-30T02:15:31.485Z,76027.25
2023-04-30T02:18:00.688Z,76029.28
2023-04-30T02:20:28.546Z,76035.41
2023-04-30T02:22:56.302Z,76035.41
2023-04-30T02:25:24.030Z,76035.41
2023-04-30T02:27:51.836Z,76033.38
2023-04-30T02:30:20.962Z,76037.44
2023-04-30T02:32:49.017Z,76041.53
2023-04-30T02:35:18.282Z,76041.53
2023-04-30T02:37:46.011Z,76041.53
2023-04-30T02:40:13.988Z,76045.59
2023-04-30T02:42:41.771Z,76051.72
2023-04-30T02:45:10.233Z,76047.63
2023-04-30T02:47:38.005Z,76055.78
2023-04-30T02:50:06.687Z,76053.75
2023-04-30T02:52:35.824Z,76068.03
2023-04-30T02:55:04.230Z,76076.19
2023-04-30T02:57:32.126Z,76066.00
2023-04-30T02:59:59.876Z,76066.00
2023-04-30T03:02:27.655Z,76070.06
2023-04-30T03:04:55.459Z,76076.19
2023-04-30T03:07:23.347Z,76082.28
2023-04-30T03:09:52.679Z,76084.34
2023-04-30T03:12:20.527Z,76076.19
2023-04-30T03:14:48.252Z,76086.38
2023-04-30T03:17:16.642Z,76088.41
2023-04-30T03:19:44.431Z,76100.66
2023-04-30T03:22:12.484Z,76102.69
2023-04-30T03:24:40.219Z,76106.75
2023-04-30T03:27:09.419Z,76102.69
2023-04-30T03:29:37.188Z,76102.69
2023-04-30T03:32:05.367Z,76106.75
2023-04-30T03:34:33.194Z,76110.84
2023-04-30T03:37:01.857Z,76114.91
2023-04-30T03:39:29.638Z,76116.97
2023-04-30T03:41:57.414Z,76114.91
2023-04-30T03:44:26.486Z,76116.97
2023-04-30T03:46:54.212Z,76119.00
2023-04-30T03:49:21.986Z,76119.00
2023-04-30T03:51:49.709Z,76114.91
2023-04-30T03:54:17.431Z,76119.00
2023-04-30T03:56:45.427Z,76119.00
2023-04-30T03:59:13.260Z,76119.00
2023-04-30T04:01:42.466Z,76125.13
2023-04-30T04:04:10.790Z,76127.16
2023-04-30T04:06:38.615Z,76123.06
2023-04-30T04:09:06.609Z,76127.16
2023-04-30T04:11:34.458Z,76123.06
2023-04-30T04:14:02.198Z,76129.19
2023-04-30T04:16:30.201Z,76131.22
2023-04-30T04:18:59.355Z,76131.22
2023-04-30T04:21:27.079Z,76131.22
2023-04-30T04:23:54.844Z,76129.19
2023-04-30T04:26:25.586Z,76133.25
2023-04-30T04:28:53.400Z,76131.22
2023-04-30T04:31:22.690Z,76143.47
2023-04-30T04:33:50.594Z,76145.50
2023-04-30T04:36:19.654Z,76139.38
2023-04-30T04:38:47.913Z,76133.25
2023-04-30T04:41:15.729Z,76139.38
2023-04-30T04:43:43.773Z,76145.50
2023-04-30T04:46:13.725Z,76151.63
2023-04-30T04:48:42.190Z,76143.47
2023-04-30T04:51:11.156Z,76141.41
2023-04-30T04:53:40.258Z,76139.38
2023-04-30T04:56:08.997Z,76139.38
2023-04-30T04:58:36.816Z,76139.38
2023-04-30T05:01:05.112Z,76143.47
2023-04-30T05:03:33.205Z,76131.22
2023-04-30T05:06:01.098Z,76135.31
2023-04-30T05:08:28.844Z,76131.22
2023-04-30T05:10:57.980Z,76129.19
2023-04-30T05:13:26.394Z,76114.91
2023-04-30T05:15:55.537Z,76110.84
2023-04-30T05:18:23.437Z,76108.81
2023-04-30T05:20:51.181Z,76110.84
2023-04-30T05:23:19.045Z,76110.84
2023-04-30T05:25:46.991Z,76106.75
2023-04-30T05:28:16.048Z,76102.69
2023-04-30T05:30:43.790Z,76094.53
2023-04-30T05:35:39.349Z,76080.25
2023-04-30T05:38:07.098Z,76078.22
2023-04-30T05:40:34.893Z,76066.00
2023-04-30T05:43:02.662Z,76059.88
2023-04-30T05:45:31.798Z,76061.91
2023-04-30T05:47:59.668Z,76053.75
2023-04-30T05:50:27.450Z,76051.72
2023-04-30T05:52:55.185Z,76053.75
2023-04-30T05:55:23.006Z,76045.59
2023-04-30T05:57:50.796Z,76031.31
2023-04-30T06:00:18.799Z,76025.22
2023-04-30T06:02:48.164Z,76029.28
2023-04-30T06:05:16.414Z,76033.38
2023-04-30T06:07:44.291Z,76029.28
2023-04-30T06:10:12.584Z,76025.22
2023-04-30T06:12:40.508Z,76015.03
2023-04-30T06:15:09.023Z,76004.81
2023-04-30T06:17:37.031Z,75996.66
2023-04-30T06:20:07.406Z,75986.47
2023-04-30T06:22:35.314Z,75984.44
2023-04-30T06:25:03.497Z,75974.25
2023-04-30T06:27:32.477Z,75970.16
2023-04-30T06:30:01.171Z,75959.97
2023-04-30T06:32:29.139Z,75968.13
2023-04-30T06:34:59.530Z,75962.00
2023-04-30T06:37:28.631Z,75955.91
2023-04-30T06:39:56.677Z,75945.69
2023-04-30T06:42:24.677Z,75931.44
2023-04-30T06:44:52.555Z,75923.28
2023-04-30T06:47:20.355Z,75917.16
2023-04-30T06:49:48.073Z,75911.03
2023-04-30T06:52:15.824Z,75894.75
2023-04-30T06:54:45.231Z,75894.75
2023-04-30T06:57:13.354Z,75880.47
2023-04-30T06:59:41.238Z,75898.81
2023-04-30T07:02:09.091Z,75894.75
2023-04-30T07:04:36.915Z,75878.44
2023-04-30T07:07:05.103Z,75853.97
2023-04-30T07:09:32.990Z,75839.69
2023-04-30T07:12:02.095Z,75831.53
2023-04-30T07:14:29.822Z,75837.66
2023-04-30T07:16:58.127Z,75829.50
2023-04-30T07:19:26.989Z,75821.34
2023-04-30T07:21:54.753Z,75811.16
2023-04-30T07:24:22.652Z,75788.72
2023-04-30T07:26:50.434Z,75796.88
2023-04-30T07:29:19.532Z,75782.59
2023-04-30T07:31:47.795Z,75788.72
2023-04-30T07:34:15.550Z,75780.56
2023-04-30T07:36:43.613Z,75780.56
2023-04-30T07:39:11.833Z,75774.47
2023-04-30T07:41:39.613Z,75780.56
2023-04-30T07:44:07.499Z,75772.41
2023-04-30T07:46:37.000Z,75768.34
2023-04-30T07:49:05.089Z,75770.38
2023-04-30T07:51:34.015Z,75756.09
2023-04-30T07:54:01.914Z,75741.84
2023-04-30T07:56:29.774Z,75731.66
2023-04-30T07:58:57.620Z,75707.19
2023-04-30T08:01:25.462Z,75678.63
2023-04-30T08:03:54.618Z,75676.59
2023-04-30T08:06:22.785Z,75694.94
2023-04-30T08:08:50.755Z,75713.28
2023-04-30T08:11:18.488Z,75721.44
2023-04-30T08:13:47.639Z,75717.38
2023-04-30T08:16:16.118Z,75686.78
2023-04-30T08:18:46.294Z,75682.72
2023-04-30T08:21:15.474Z,75654.19
2023-04-30T08:23:43.260Z,75662.34
2023-04-30T08:26:11.100Z,75656.22
2023-04-30T08:28:38.850Z,75646.03
2023-04-30T08:31:06.722Z,75662.34
2023-04-30T08:33:34.464Z,75666.41
2023-04-30T08:36:02.196Z,75650.09
2023-04-30T08:38:31.347Z,75650.09
2023-04-30T08:41:08.293Z,75654.19
2023-04-30T08:43:36.539Z,75650.09
2023-04-30T08:46:05.172Z,75650.09
2023-04-30T08:48:33.225Z,75641.94
2023-04-30T08:51:02.180Z,75656.22
2023-04-30T08:53:33.921Z,75646.03
2023-04-30T08:56:01.780Z,75641.94
2023-04-30T08:58:29.498Z,75641.94
2023-04-30T09:00:59.100Z,75641.94
2023-04-30T09:03:28.376Z,75625.63
2023-04-30T09:05:57.129Z,75613.41
2023-04-30T09:08:44.896Z,75597.09
2023-04-30T09:11:23.985Z,75613.41
2023-04-30T09:13:53.626Z,75625.63
2023-04-30T09:16:21.816Z,75646.03
2023-04-30T09:18:50.190Z,75635.84
2023-04-30T09:21:18.400Z,75617.50
2023-04-30T09:23:58.212Z,75605.25
2023-04-30T09:26:41.733Z,75599.13
2023-04-30T09:29:10.333Z,75599.13
2023-04-30T09:31:39.640Z,75609.34
2023-04-30T09:34:07.505Z,75613.41
2023-04-30T09:36:35.839Z,75621.56
2023-04-30T09:39:14.785Z,75654.19
2023-04-30T09:41:43.432Z,75662.34
2023-04-30T09:44:28.359Z,75664.38
2023-04-30T09:46:58.686Z,75672.53
2023-04-30T09:49:27.416Z,75666.41
2023-04-30T09:51:56.741Z,75674.56
2023-04-30T09:54:27.802Z,75670.50
2023-04-30T09:56:56.514Z,75670.50
2023-04-30T09:59:30.692Z,75682.72
2023-04-30T10:02:00.936Z,75656.22
2023-04-30T10:04:32.023Z,75641.94
2023-04-30T10:07:01.330Z,75633.78
2023-04-30T10:09:37.620Z,75637.88
2023-04-30T10:12:08.371Z,75625.63
2023-04-30T10:14:36.751Z,75617.50
2023-04-30T10:17:09.753Z,75597.09
2023-04-30T10:19:41.632Z,75570.59
2023-04-30T10:22:10.636Z,75597.09
2023-04-30T10:24:40.162Z,75584.88
2023-04-30T10:27:07.948Z,75572.63
2023-04-30T10:29:35.687Z,75580.78
2023-04-30T10:32:05.251Z,75584.88
2023-04-30T10:34:45.453Z,75570.59
2023-04-30T10:37:22.174Z,75544.09
2023-04-30T10:39:52.175Z,75523.72
2023-04-30T10:42:20.400Z,75523.72
2023-04-30T10:44:48.754Z,75517.59
2023-04-30T10:47:19.275Z,75515.56
2023-04-30T10:49:49.055Z,75507.41
2023-04-30T10:52:27.915Z,75478.88
2023-04-30T10:54:57.103Z,75480.91
2023-04-30T10:57:25.161Z,75419.75
2023-04-30T10:59:55.316Z,75344.34
2023-04-30T11:02:23.361Z,75291.34
2023-04-30T11:05:10.018Z,75244.47
2023-04-30T11:07:38.322Z,75197.56
2023-04-30T11:10:09.485Z,75242.41
2023-04-30T11:12:42.507Z,75266.88
2023-04-30T11:15:16.427Z,75213.88
2023-04-30T11:17:47.513Z,75136.44
2023-04-30T11:20:19.857Z,75160.88
2023-04-30T11:22:47.828Z,75222.03
2023-04-30T11:25:20.682Z,75250.56
2023-04-30T11:27:48.568Z,75305.59
2023-04-30T11:30:18.554Z,75330.06
2023-04-30T11:32:48.264Z,75358.59
2023-04-30T11:35:19.681Z,75397.34
2023-04-30T11:37:49.161Z,75385.09
2023-04-30T11:40:18.374Z,75381.03
2023-04-30T11:42:52.205Z,75368.78
2023-04-30T11:45:20.886Z,75383.06
2023-04-30T11:47:50.502Z,75364.72
2023-04-30T11:50:21.281Z,75387.13
2023-04-30T11:52:53.798Z,75385.09
2023-04-30T11:55:24.221Z,75407.53
2023-04-30T11:57:55.636Z,75385.09
2023-04-30T12:00:27.781Z,75381.03
2023-04-30T12:02:56.336Z,75368.78
2023-04-30T12:05:26.602Z,75352.50
2023-04-30T12:07:56.991Z,75352.50
2023-04-30T12:10:26.979Z,75328.03
2023-04-30T12:12:55.357Z,75256.69
2023-04-30T12:15:27.128Z,75224.06
2023-04-30T12:17:58.618Z,75238.34
2023-04-30T12:20:28.407Z,75258.72
2023-04-30T12:22:56.480Z,75311.72
2023-04-30T12:25:26.587Z,75303.56
2023-04-30T12:27:58.355Z,75344.34
2023-04-30T12:30:29.646Z,75332.09
2023-04-30T12:33:01.002Z,75358.59
2023-04-30T12:35:31.153Z,75393.25
2023-04-30T12:38:06.625Z,75413.66
2023-04-30T12:40:34.857Z,75397.34
2023-04-30T12:43:06.016Z,75407.53
2023-04-30T12:45:52.845Z,75429.94
2023-04-30T12:48:22.137Z,75444.22
2023-04-30T12:50:53.834Z,75405.50
2023-04-30T12:53:21.896Z,75387.13
2023-04-30T12:56:09.524Z,75401.41
2023-04-30T12:58:39.880Z,75381.03
2023-04-30T13:01:12.826Z,75354.53
2023-04-30T13:03:41.261Z,75346.38
2023-04-30T13:06:10.535Z,75356.56
2023-04-30T13:08:49.868Z,75342.28
2023-04-30T13:11:26.135Z,75319.88
2023-04-30T13:13:56.578Z,75309.69
2023-04-30T13:16:25.957Z,75301.53
2023-04-30T13:18:53.912Z,75283.19
2023-04-30T13:21:21.803Z,75256.69
2023-04-30T13:23:53.520Z,75238.34
2023-04-30T13:26:23.171Z,75209.81
2023-04-30T13:28:51.522Z,75215.91
2023-04-30T13:31:20.817Z,75234.28
2023-04-30T13:33:49.025Z,75242.41
2023-04-30T13:36:16.879Z,75215.91
2023-04-30T13:38:44.645Z,75222.03
2023-04-30T13:41:12.424Z,75246.50
2023-04-30T13:43:42.627Z,75238.34
2023-04-30T13:46:10.798Z,75191.47
2023-04-30T13:48:40.010Z,75222.03
2023-04-30T13:51:08.382Z,75230.19
2023-04-30T13:53:37.051Z,75224.06
2023-04-30T13:56:08.186Z,75213.88
2023-04-30T13:58:36.002Z,75246.50
2023-04-30T14:01:03.936Z,75281.16
2023-04-30T14:03:31.913Z,75277.06
2023-04-30T14:06:01.399Z,75283.19
2023-04-30T14:08:30.770Z,75258.72
2023-04-30T14:10:58.635Z,75217.97
2023-04-30T14:13:26.602Z,75209.81
2023-04-30T14:15:54.700Z,75144.59
2023-04-30T14:18:22.924Z,75193.50
2023-04-30T14:20:51.036Z,75177.19
2023-04-30T14:23:20.243Z,75183.31
2023-04-30T14:25:48.324Z,75201.66
2023-04-30T14:28:16.773Z,75205.72
2023-04-30T14:30:44.596Z,75205.72
2023-04-30T14:33:12.976Z,75250.56
2023-04-30T14:35:41.557Z,75242.41
2023-04-30T14:38:12.142Z,75226.13
2023-04-30T14:40:41.242Z,75217.97
2023-04-30T14:43:09.038Z,75230.19
2023-04-30T14:45:38.166Z,75264.84
2023-04-30T14:48:06.469Z,75256.69
2023-04-30T14:50:34.288Z,75266.88
2023-04-30T14:53:02.053Z,75270.97
2023-04-30T14:55:29.837Z,75222.03
2023-04-30T14:58:01.496Z,75222.03
2023-04-30T15:00:29.421Z,75181.28
2023-04-30T15:02:57.330Z,75164.97
2023-04-30T15:05:25.960Z,75169.03
2023-04-30T15:07:54.006Z,75189.44
2023-04-30T15:10:22.011Z,75217.97
2023-04-30T15:12:49.807Z,75234.28
2023-04-30T15:15:19.541Z,75244.47
2023-04-30T15:17:47.318Z,75244.47
2023-04-30T15:20:15.258Z,75266.88
2023-04-30T15:22:42.994Z,75303.56
2023-04-30T15:25:10.870Z,75319.88
2023-04-30T15:27:39.127Z,75340.25
2023-04-30T15:30:08.579Z,75368.78
2023-04-30T15:32:37.747Z,75372.88
2023-04-30T15:35:06.805Z,75376.94
2023-04-30T15:37:35.074Z,75372.88
2023-04-30T15:40:02.920Z,75385.09
2023-04-30T15:42:30.690Z,75397.34
2023-04-30T15:44:58.461Z,75372.88
2023-04-30T15:47:26.592Z,75379.00
2023-04-30T15:49:56.169Z,75352.50
2023-04-30T15:52:24.462Z,75352.50
2023-04-30T15:54:52.195Z,75336.19
2023-04-30T15:57:20.291Z,75328.03
2023-04-30T15:59:48.020Z,75303.56
2023-04-30T16:02:15.777Z,75309.69
2023-04-30T16:04:44.523Z,75307.66
2023-04-30T16:07:14.051Z,75323.94
2023-04-30T16:09:45.656Z,75323.94
2023-04-30T16:12:13.519Z,75332.09
2023-04-30T16:14:41.264Z,75352.50
2023-04-30T16:17:09.222Z,75356.56
2023-04-30T16:19:37.007Z,75342.28
2023-04-30T16:22:04.960Z,75342.28
2023-04-30T16:24:34.451Z,75346.38
2023-04-30T16:27:02.271Z,75342.28
2023-04-30T16:29:30.045Z,75334.16
2023-04-30T16:31:58.728Z,75315.81
2023-04-30T16:34:27.445Z,75311.72
2023-04-30T16:36:55.192Z,75311.72
2023-04-30T16:39:22.934Z,75317.84
2023-04-30T16:41:52.063Z,75328.03
2023-04-30T16:44:19.883Z,75328.03
2023-04-30T16:46:48.207Z,75319.88
2023-04-30T16:49:16.256Z,75332.09
2023-04-30T16:51:44.033Z,75332.09
2023-04-30T16:54:11.783Z,75340.25
2023-04-30T16:56:39.731Z,75344.34
2023-04-30T16:59:08.867Z,75356.56
2023-04-30T17:01:36.731Z,75366.75
2023-04-30T17:04:04.580Z,75352.50
2023-04-30T17:06:33.442Z,75352.50
2023-04-30T17:09:01.280Z,75344.34
2023-04-30T17:11:29.113Z,75360.66
2023-04-30T17:13:56.936Z,75356.56
2023-04-30T17:16:26.154Z,75370.84
2023-04-30T17:18:53.998Z,75366.75
2023-04-30T17:21:21.772Z,75376.94
2023-04-30T17:23:49.527Z,75381.03
2023-04-30T17:26:18.229Z,75393.25
2023-04-30T17:28:46.009Z,75407.53
2023-04-30T17:31:13.992Z,75425.88
2023-04-30T17:33:44.130Z,75429.94
2023-04-30T17:36:13.747Z,75458.50
2023-04-30T17:38:41.476Z,75466.63
2023-04-30T17:41:09.381Z,75480.91
2023-04-30T17:43:37.146Z,75503.34
2023-04-30T17:46:05.053Z,75521.69
2023-04-30T17:48:32.916Z,75540.03
2023-04-30T17:51:02.558Z,75556.34
2023-04-30T17:53:30.453Z,75572.63
2023-04-30T17:55:59.331Z,75591.00
2023-04-30T17:58:27.831Z,75605.25
2023-04-30T18:00:56.499Z,75609.34
2023-04-30T18:03:24.304Z,75629.72
2023-04-30T18:05:52.151Z,75650.09
2023-04-30T18:08:21.254Z,75666.41
2023-04-30T18:10:49.741Z,75684.75
2023-04-30T18:13:17.523Z,75697.00
2023-04-30T18:15:45.252Z,75707.19
2023-04-30T18:18:13.052Z,75719.41
2023-04-30T18:20:40.890Z,75735.72
2023-04-30T18:23:09.957Z,75758.16
2023-04-30T18:25:40.255Z,75776.50
2023-04-30T18:28:08.723Z,75788.72
2023-04-30T18:30:37.002Z,75809.13
2023-04-30T18:33:05.218Z,75825.41
2023-04-30T18:35:34.017Z,75841.72
2023-04-30T18:38:02.723Z,75862.13
2023-04-30T18:40:31.025Z,75868.22
2023-04-30T18:43:00.099Z,75882.50
2023-04-30T18:45:27.953Z,75894.75
2023-04-30T18:47:55.922Z,75911.03
2023-04-30T18:50:23.744Z,75931.44
2023-04-30T18:52:51.527Z,75943.66
2023-04-30T18:55:19.563Z,75959.97
2023-04-30T18:57:47.320Z,75964.06
2023-04-30T19:00:16.751Z,75978.31
2023-04-30T19:02:44.652Z,75988.50
2023-04-30T19:05:12.463Z,75998.72
2023-04-30T19:07:40.931Z,76010.94
2023-04-30T19:10:09.367Z,76021.13
2023-04-30T19:12:37.281Z,76029.28
2023-04-30T19:15:07.932Z,76031.31
2023-04-30T19:17:37.088Z,76035.41
2023-04-30T19:20:05.461Z,76037.44
2023-04-30T19:22:33.247Z,76049.69
2023-04-30T19:25:01.024Z,76055.78
2023-04-30T19:27:28.768Z,76072.09
2023-04-30T19:29:57.757Z,76074.16
2023-04-30T19:32:26.161Z,76086.38
2023-04-30T19:34:55.359Z,76082.28
2023-04-30T19:37:25.070Z,76090.44
2023-04-30T19:39:53.030Z,76108.81
2023-04-30T19:42:20.917Z,76106.75
2023-04-30T19:44:48.674Z,76110.84
2023-04-30T19:47:16.515Z,76114.91
2023-04-30T19:49:44.620Z,76114.91
2023-04-30T19:52:14.405Z,76119.00
2023-04-30T19:54:48.378Z,76131.22
2023-04-30T19:57:16.221Z,76137.34
2023-04-30T19:59:44.135Z,76141.41
2023-04-30T20:02:12.088Z,76145.50
2023-04-30T20:04:39.907Z,76155.69
2023-04-30T20:07:07.808Z,76163.84
2023-04-30T20:09:37.386Z,76163.84
2023-04-30T20:12:05.564Z,76163.84
2023-04-30T20:14:33.363Z,76174.03
2023-04-30T20:17:01.105Z,76182.19
2023-04-30T20:19:28.974Z,76186.28
2023-04-30T20:21:56.924Z,76184.25
2023-04-30T20:24:24.745Z,76188.31
2023-04-30T20:26:53.835Z,76204.63
2023-04-30T20:29:23.148Z,76212.78
2023-04-30T20:31:51.806Z,76227.06
2023-04-30T20:34:19.633Z,76233.16
2023-04-30T20:36:47.461Z,76229.09
2023-04-30T20:39:15.765Z,76229.09
2023-04-30T20:41:43.801Z,76233.16
2023-04-30T20:44:12.961Z,76229.09
2023-04-30T20:46:40.810Z,76233.16
2023-04-30T20:49:11.053Z,76233.16
2023-04-30T20:51:40.243Z,76245.41
2023-04-30T20:54:08.736Z,76251.53
2023-04-30T20:56:36.774Z,76253.56
2023-04-30T20:59:05.921Z,76255.59
2023-04-30T21:01:35.120Z,76261.72
2023-04-30T21:04:02.938Z,76273.94
2023-04-30T21:06:31.932Z,76269.88
2023-04-30T21:09:00.024Z,76278.03
2023-04-30T21:11:28.800Z,76280.06
2023-04-30T21:13:57.130Z,76292.28
2023-04-30T21:16:25.263Z,76306.56
2023-04-30T21:18:54.430Z,76308.59
2023-04-30T21:21:22.225Z,76318.81
2023-04-30T21:23:50.142Z,76322.88
2023-04-30T21:26:17.971Z,76318.81
2023-04-30T21:28:45.947Z,76318.81
2023-04-30T21:31:13.870Z,76318.81
2023-04-30T21:33:41.812Z,76322.88
2023-04-30T21:36:11.029Z,76326.97
2023-04-30T21:38:38.916Z,76331.03
2023-04-30T21:41:07.007Z,76335.13
2023-04-30T21:43:35.083Z,76339.19
2023-04-30T21:46:03.295Z,76355.50
2023-04-30T21:48:31.148Z,76363.66
2023-04-30T21:50:58.944Z,76371.81
2023-04-30T21:53:28.231Z,76382.00
2023-04-30T21:55:57.229Z,76375.91
2023-04-30T21:58:25.091Z,76371.81
2023-04-30T22:00:55.105Z,76373.84
2023-04-30T22:03:22.975Z,76365.69
2023-04-30T22:05:50.889Z,76375.91
2023-04-30T22:08:18.830Z,76384.06
2023-04-30T22:10:48.021Z,76384.06
2023-04-30T22:13:16.078Z,76392.22
2023-04-30T22:15:48.055Z,76402.41
2023-04-30T22:18:17.102Z,76410.56
2023-04-30T22:20:45.013Z,76408.53
2023-04-30T22:23:12.761Z,76408.53
2023-04-30T22:25:40.546Z,76408.53
2023-04-30T22:28:10.184Z,76400.38
2023-04-30T22:30:38.445Z,76408.53
2023-04-30T22:33:06.384Z,76410.56
2023-04-30T22:35:38.138Z,76420.75
2023-04-30T22:38:06.426Z,76430.94
2023-04-30T22:40:35.560Z,76441.16
2023-04-30T22:43:05.152Z,76437.06
2023-04-30T22:45:37.294Z,76443.19
2023-04-30T22:48:05.543Z,76449.28
2023-04-30T22:50:33.598Z,76453.38
2023-04-30T22:53:01.488Z,76471.72
2023-04-30T22:55:29.438Z,76483.97
2023-04-30T22:57:59.719Z,76488.03
2023-04-30T23:00:27.767Z,76490.06
2023-04-30T23:02:57.467Z,76490.06
2023-04-30T23:05:25.602Z,76498.22
2023-04-30T23:07:54.134Z,76490.06
2023-04-30T23:10:21.925Z,76490.06
2023-04-30T23:12:49.673Z,76494.16
2023-04-30T23:15:18.338Z,76496.19
2023-04-30T23:17:46.218Z,76500.28
2023-04-30T23:20:15.799Z,76494.16
2023-04-30T23:22:43.577Z,76494.16
2023-04-30T23:25:11.760Z,76496.19
2023-04-30T23:27:39.516Z,76498.22
2023-04-30T23:30:09.539Z,76506.38
2023-04-30T23:32:37.672Z,76494.16
2023-04-30T23:35:06.879Z,76498.22
2023-04-30T23:37:36.039Z,76504.34
2023-04-30T23:40:07.323Z,76504.34
2023-04-30T23:42:35.566Z,76508.44
2023-04-30T23:45:03.778Z,76518.63
2023-04-30T23:47:31.662Z,76524.75
2023-04-30T23:49:59.530Z,76526.78
2023-04-30T23:52:27.296Z,76520.66
2023-04-30T23:54:56.819Z,76522.69
2023-04-30T23:57:24.729Z,76526.78
2023-04-30T23:59:52.464Z,76526.78
